sensor_id;sensor_type;location;lat;lon;timestamp;P1;durP1;ratioP1;P2;durP2;ratioP2
9418;SDS011;4748;50.802;7.132;2022-12-10T00:01:41;9.00;;;3.83;;
9418;SDS011;4748;50.802;7.132;2022-12-10T00:04:08;6.83;;;3.37;;
9418;SDS011;4748;50.802;7.132;2022-12-10T00:06:34;5.60;;;3.57;;
9418;SDS011;4748;50.802;7.132;2022-12-10T00:09:02;2.80;;;2.60;;
9418;SDS011;4748;50.802;7.132;2022-12-10T00:11:29;5.30;;;3.23;;
9418;SDS011;4748;50.802;7.132;2022-12-10T00:13:55;4.07;;;3.23;;
9418;SDS011;4748;50.802;7.132;2022-12-10T00:16:21;8.77;;;4.77;;
9418;SDS011;4748;50.802;7.132;2022-12-10T00:18:49;6.33;;;4.50;;
9418;SDS011;4748;50.802;7.132;2022-12-10T00:21:16;6.73;;;3.63;;
9418;SDS011;4748;50.802;7.132;2022-12-10T00:23:44;5.83;;;3.97;;
9418;SDS011;4748;50.802;7.132;2022-12-10T00:28:37;7.77;;;3.97;;
9418;SDS011;4748;50.802;7.132;2022-12-10T00:31:04;5.43;;;4.40;;
9418;SDS011;4748;50.802;7.132;2022-12-10T00:33:33;8.70;;;5.13;;
9418;SDS011;4748;50.802;7.132;2022-12-10T00:36:03;14.10;;;4.47;;
9418;SDS011;4748;50.802;7.132;2022-12-10T00:38:30;9.40;;;4.53;;
9418;SDS011;4748;50.802;7.132;2022-12-10T00:40:56;6.40;;;4.03;;
9418;SDS011;4748;50.802;7.132;2022-12-10T00:43:21;12.03;;;5.47;;
9418;SDS011;4748;50.802;7.132;2022-12-10T00:45:47;8.43;;;3.77;;
9418;SDS011;4748;50.802;7.132;2022-12-10T00:48:12;7.53;;;4.80;;
9418;SDS011;4748;50.802;7.132;2022-12-10T00:50:37;6.80;;;4.97;;
9418;SDS011;4748;50.802;7.132;2022-12-10T00:53:03;8.13;;;4.80;;
9418;SDS011;4748;50.802;7.132;2022-12-10T00:55:28;5.17;;;3.57;;
9418;SDS011;4748;50.802;7.132;2022-12-10T00:57:53;8.43;;;5.33;;
9418;SDS011;4748;50.802;7.132;2022-12-10T01:00:19;7.17;;;3.77;;
9418;SDS011;4748;50.802;7.132;2022-12-10T01:02:44;5.90;;;3.50;;
9418;SDS011;4748;50.802;7.132;2022-12-10T01:05:09;4.17;;;2.83;;
9418;SDS011;4748;50.802;7.132;2022-12-10T01:07:35;7.50;;;4.13;;
9418;SDS011;4748;50.802;7.132;2022-12-10T01:10:00;7.67;;;3.83;;
9418;SDS011;4748;50.802;7.132;2022-12-10T01:12:26;6.70;;;4.20;;
9418;SDS011;4748;50.802;7.132;2022-12-10T01:14:51;3.40;;;2.63;;
9418;SDS011;4748;50.802;7.132;2022-12-10T01:17:16;7.77;;;3.53;;
9418;SDS011;4748;50.802;7.132;2022-12-10T01:19:42;4.73;;;3.73;;
9418;SDS011;4748;50.802;7.132;2022-12-10T01:22:07;9.23;;;4.47;;
9418;SDS011;4748;50.802;7.132;2022-12-10T01:24:32;6.63;;;3.63;;
9418;SDS011;4748;50.802;7.132;2022-12-10T01:26:58;10.80;;;4.10;;
9418;SDS011;4748;50.802;7.132;2022-12-10T01:29:23;7.40;;;3.83;;
9418;SDS011;4748;50.802;7.132;2022-12-10T01:31:52;8.87;;;5.07;;
9418;SDS011;4748;50.802;7.132;2022-12-10T01:34:19;5.20;;;3.37;;
9418;SDS011;4748;50.802;7.132;2022-12-10T01:36:47;3.63;;;3.23;;
9418;SDS011;4748;50.802;7.132;2022-12-10T01:39:15;7.63;;;4.33;;
9418;SDS011;4748;50.802;7.132;2022-12-10T01:41:46;6.07;;;2.97;;
9418;SDS011;4748;50.802;7.132;2022-12-10T01:46:43;7.27;;;4.93;;
9418;SDS011;4748;50.802;7.132;2022-12-10T01:49:17;13.40;;;3.73;;
9418;SDS011;4748;50.802;7.132;2022-12-10T01:51:47;5.57;;;3.40;;
9418;SDS011;4748;50.802;7.132;2022-12-10T01:54:16;2.87;;;2.67;;
9418;SDS011;4748;50.802;7.132;2022-12-10T01:56:45;5.23;;;3.47;;
9418;SDS011;4748;50.802;7.132;2022-12-10T01:59:14;2.60;;;2.40;;
9418;SDS011;4748;50.802;7.132;2022-12-10T02:07:17;4.23;;;2.47;;
9418;SDS011;4748;50.802;7.132;2022-12-10T02:12:37;6.33;;;2.90;;
9418;SDS011;4748;50.802;7.132;2022-12-10T02:17:54;4.40;;;2.90;;
9418;SDS011;4748;50.802;7.132;2022-12-10T02:20:42;7.73;;;4.03;;
9418;SDS011;4748;50.802;7.132;2022-12-10T02:23:20;6.30;;;2.43;;
9418;SDS011;4748;50.802;7.132;2022-12-10T02:31:30;1.63;;;1.53;;
9418;SDS011;4748;50.802;7.132;2022-12-10T02:33:58;2.80;;;2.60;;
9418;SDS011;4748;50.802;7.132;2022-12-10T02:36:27;4.63;;;2.77;;
9418;SDS011;4748;50.802;7.132;2022-12-10T02:38:57;2.90;;;2.60;;
9418;SDS011;4748;50.802;7.132;2022-12-10T02:41:28;3.20;;;2.53;;
9418;SDS011;4748;50.802;7.132;2022-12-10T02:44:00;3.93;;;2.77;;
9418;SDS011;4748;50.802;7.132;2022-12-10T02:46:30;3.80;;;2.60;;
9418;SDS011;4748;50.802;7.132;2022-12-10T02:48:58;4.97;;;2.03;;
9418;SDS011;4748;50.802;7.132;2022-12-10T02:51:26;4.40;;;2.40;;
9418;SDS011;4748;50.802;7.132;2022-12-10T02:54:04;3.03;;;2.67;;
9418;SDS011;4748;50.802;7.132;2022-12-10T02:56:45;2.73;;;2.47;;
9418;SDS011;4748;50.802;7.132;2022-12-10T02:59:21;3.47;;;3.13;;
9418;SDS011;4748;50.802;7.132;2022-12-10T03:04:39;3.17;;;2.13;;
9418;SDS011;4748;50.802;7.132;2022-12-10T03:07:10;5.93;;;3.40;;
9418;SDS011;4748;50.802;7.132;2022-12-10T03:09:45;2.17;;;2.03;;
9418;SDS011;4748;50.802;7.132;2022-12-10T03:12:20;2.37;;;2.03;;
9418;SDS011;4748;50.802;7.132;2022-12-10T03:14:50;4.23;;;2.80;;
9418;SDS011;4748;50.802;7.132;2022-12-10T03:17:18;4.80;;;3.73;;
9418;SDS011;4748;50.802;7.132;2022-12-10T03:19:45;5.33;;;2.70;;
9418;SDS011;4748;50.802;7.132;2022-12-10T03:22:14;5.07;;;3.27;;
9418;SDS011;4748;50.802;7.132;2022-12-10T03:24:44;9.13;;;2.93;;
9418;SDS011;4748;50.802;7.132;2022-12-10T03:27:10;6.07;;;2.77;;
9418;SDS011;4748;50.802;7.132;2022-12-10T03:29:38;5.17;;;2.37;;
9418;SDS011;4748;50.802;7.132;2022-12-10T03:32:09;5.17;;;2.87;;
9418;SDS011;4748;50.802;7.132;2022-12-10T03:34:35;3.47;;;2.93;;
9418;SDS011;4748;50.802;7.132;2022-12-10T03:37:02;4.93;;;3.40;;
9418;SDS011;4748;50.802;7.132;2022-12-10T03:39:29;3.97;;;2.63;;
9418;SDS011;4748;50.802;7.132;2022-12-10T03:41:54;5.20;;;3.20;;
9418;SDS011;4748;50.802;7.132;2022-12-10T03:44:33;4.13;;;3.40;;
9418;SDS011;4748;50.802;7.132;2022-12-10T03:47:00;7.50;;;3.33;;
9418;SDS011;4748;50.802;7.132;2022-12-10T03:49:27;7.13;;;4.17;;
9418;SDS011;4748;50.802;7.132;2022-12-10T03:51:52;11.37;;;3.70;;
9418;SDS011;4748;50.802;7.132;2022-12-10T03:54:17;4.73;;;2.47;;
9418;SDS011;4748;50.802;7.132;2022-12-10T03:56:43;3.40;;;2.90;;
9418;SDS011;4748;50.802;7.132;2022-12-10T03:59:09;3.80;;;3.43;;
9418;SDS011;4748;50.802;7.132;2022-12-10T04:01:34;4.10;;;3.03;;
9418;SDS011;4748;50.802;7.132;2022-12-10T04:03:59;5.00;;;2.77;;
9418;SDS011;4748;50.802;7.132;2022-12-10T04:06:25;6.03;;;3.20;;
9418;SDS011;4748;50.802;7.132;2022-12-10T04:08:51;4.00;;;2.43;;
9418;SDS011;4748;50.802;7.132;2022-12-10T04:11:17;4.07;;;3.67;;
9418;SDS011;4748;50.802;7.132;2022-12-10T04:13:43;7.80;;;3.40;;
9418;SDS011;4748;50.802;7.132;2022-12-10T04:16:27;5.67;;;3.10;;
9418;SDS011;4748;50.802;7.132;2022-12-10T04:18:55;4.33;;;2.93;;
9418;SDS011;4748;50.802;7.132;2022-12-10T04:21:30;8.40;;;2.87;;
9418;SDS011;4748;50.802;7.132;2022-12-10T04:24:16;6.87;;;2.27;;
9418;SDS011;4748;50.802;7.132;2022-12-10T04:27:03;3.90;;;3.13;;
9418;SDS011;4748;50.802;7.132;2022-12-10T04:29:32;6.10;;;3.70;;
9418;SDS011;4748;50.802;7.132;2022-12-10T04:31:58;11.53;;;4.87;;
9418;SDS011;4748;50.802;7.132;2022-12-10T04:34:24;6.37;;;4.00;;
9418;SDS011;4748;50.802;7.132;2022-12-10T04:36:50;7.97;;;3.53;;
9418;SDS011;4748;50.802;7.132;2022-12-10T04:39:16;9.13;;;4.13;;
9418;SDS011;4748;50.802;7.132;2022-12-10T04:41:43;2.87;;;1.87;;
9418;SDS011;4748;50.802;7.132;2022-12-10T04:44:09;12.47;;;6.13;;
9418;SDS011;4748;50.802;7.132;2022-12-10T04:46:35;4.97;;;4.20;;
9418;SDS011;4748;50.802;7.132;2022-12-10T04:49:01;4.43;;;3.30;;
9418;SDS011;4748;50.802;7.132;2022-12-10T04:51:26;7.33;;;4.00;;
9418;SDS011;4748;50.802;7.132;2022-12-10T04:53:52;7.00;;;3.83;;
9418;SDS011;4748;50.802;7.132;2022-12-10T04:56:17;4.57;;;3.37;;
9418;SDS011;4748;50.802;7.132;2022-12-10T04:58:43;7.30;;;4.40;;
9418;SDS011;4748;50.802;7.132;2022-12-10T05:01:09;4.57;;;3.07;;
9418;SDS011;4748;50.802;7.132;2022-12-10T05:03:36;5.23;;;3.63;;
9418;SDS011;4748;50.802;7.132;2022-12-10T05:06:06;7.37;;;3.43;;
9418;SDS011;4748;50.802;7.132;2022-12-10T05:08:35;5.80;;;3.50;;
9418;SDS011;4748;50.802;7.132;2022-12-10T05:11:06;3.57;;;3.27;;
9418;SDS011;4748;50.802;7.132;2022-12-10T05:13:34;8.23;;;3.17;;
9418;SDS011;4748;50.802;7.132;2022-12-10T05:16:03;4.00;;;2.83;;
9418;SDS011;4748;50.802;7.132;2022-12-10T05:18:29;4.17;;;2.07;;
9418;SDS011;4748;50.802;7.132;2022-12-10T05:20:57;6.23;;;2.37;;
9418;SDS011;4748;50.802;7.132;2022-12-10T05:23:23;6.00;;;3.10;;
9418;SDS011;4748;50.802;7.132;2022-12-10T05:25:58;6.43;;;3.07;;
9418;SDS011;4748;50.802;7.132;2022-12-10T05:28:29;7.87;;;4.10;;
9418;SDS011;4748;50.802;7.132;2022-12-10T05:30:56;6.07;;;4.60;;
9418;SDS011;4748;50.802;7.132;2022-12-10T05:33:22;4.60;;;2.70;;
9418;SDS011;4748;50.802;7.132;2022-12-10T05:35:52;7.30;;;4.20;;
9418;SDS011;4748;50.802;7.132;2022-12-10T05:38:21;5.20;;;4.20;;
9418;SDS011;4748;50.802;7.132;2022-12-10T05:40:47;6.40;;;3.40;;
9418;SDS011;4748;50.802;7.132;2022-12-10T05:43:13;9.33;;;4.63;;
9418;SDS011;4748;50.802;7.132;2022-12-10T05:45:38;5.23;;;2.87;;
9418;SDS011;4748;50.802;7.132;2022-12-10T05:48:03;8.87;;;4.40;;
9418;SDS011;4748;50.802;7.132;2022-12-10T05:50:30;5.57;;;3.43;;
9418;SDS011;4748;50.802;7.132;2022-12-10T05:52:56;6.77;;;3.93;;
9418;SDS011;4748;50.802;7.132;2022-12-10T05:55:21;6.70;;;3.50;;
9418;SDS011;4748;50.802;7.132;2022-12-10T05:57:47;7.33;;;4.13;;
9418;SDS011;4748;50.802;7.132;2022-12-10T06:00:12;9.50;;;4.40;;
9418;SDS011;4748;50.802;7.132;2022-12-10T06:02:38;4.63;;;3.03;;
9418;SDS011;4748;50.802;7.132;2022-12-10T06:05:03;3.13;;;2.87;;
9418;SDS011;4748;50.802;7.132;2022-12-10T06:07:29;7.50;;;3.63;;
9418;SDS011;4748;50.802;7.132;2022-12-10T06:09:55;9.23;;;4.13;;
9418;SDS011;4748;50.802;7.132;2022-12-10T06:12:20;12.03;;;4.60;;
9418;SDS011;4748;50.802;7.132;2022-12-10T06:14:46;4.50;;;2.77;;
9418;SDS011;4748;50.802;7.132;2022-12-10T06:17:11;7.70;;;3.93;;
9418;SDS011;4748;50.802;7.132;2022-12-10T06:19:36;9.27;;;4.00;;
9418;SDS011;4748;50.802;7.132;2022-12-10T06:22:02;6.17;;;3.53;;
9418;SDS011;4748;50.802;7.132;2022-12-10T06:24:27;5.70;;;3.83;;
9418;SDS011;4748;50.802;7.132;2022-12-10T06:26:53;3.10;;;2.63;;
9418;SDS011;4748;50.802;7.132;2022-12-10T06:29:19;8.63;;;4.57;;
9418;SDS011;4748;50.802;7.132;2022-12-10T06:31:44;8.10;;;4.43;;
9418;SDS011;4748;50.802;7.132;2022-12-10T06:34:09;7.50;;;3.63;;
9418;SDS011;4748;50.802;7.132;2022-12-10T06:36:35;5.53;;;3.30;;
9418;SDS011;4748;50.802;7.132;2022-12-10T06:39:01;5.23;;;3.27;;
9418;SDS011;4748;50.802;7.132;2022-12-10T06:41:29;9.50;;;4.00;;
9418;SDS011;4748;50.802;7.132;2022-12-10T06:43:55;5.90;;;3.10;;
9418;SDS011;4748;50.802;7.132;2022-12-10T06:46:23;9.43;;;4.53;;
9418;SDS011;4748;50.802;7.132;2022-12-10T06:48:50;3.30;;;2.67;;
9418;SDS011;4748;50.802;7.132;2022-12-10T06:51:16;5.23;;;3.07;;
9418;SDS011;4748;50.802;7.132;2022-12-10T06:53:42;5.63;;;3.67;;
9418;SDS011;4748;50.802;7.132;2022-12-10T06:56:11;4.97;;;3.30;;
9418;SDS011;4748;50.802;7.132;2022-12-10T06:58:38;7.33;;;3.17;;
9418;SDS011;4748;50.802;7.132;2022-12-10T07:01:09;9.43;;;4.67;;
9418;SDS011;4748;50.802;7.132;2022-12-10T07:03:49;21.03;;;3.23;;
9418;SDS011;4748;50.802;7.132;2022-12-10T07:06:15;11.00;;;3.50;;
9418;SDS011;4748;50.802;7.132;2022-12-10T07:08:40;3.30;;;2.63;;
9418;SDS011;4748;50.802;7.132;2022-12-10T07:11:06;5.70;;;3.37;;
9418;SDS011;4748;50.802;7.132;2022-12-10T07:13:33;6.37;;;3.30;;
9418;SDS011;4748;50.802;7.132;2022-12-10T07:15:59;8.50;;;3.90;;
9418;SDS011;4748;50.802;7.132;2022-12-10T07:18:25;7.20;;;3.23;;
9418;SDS011;4748;50.802;7.132;2022-12-10T07:20:50;6.17;;;2.87;;
9418;SDS011;4748;50.802;7.132;2022-12-10T07:23:16;7.40;;;4.03;;
9418;SDS011;4748;50.802;7.132;2022-12-10T07:25:41;6.80;;;3.80;;
9418;SDS011;4748;50.802;7.132;2022-12-10T07:28:06;4.93;;;4.07;;
9418;SDS011;4748;50.802;7.132;2022-12-10T07:30:32;7.73;;;3.37;;
9418;SDS011;4748;50.802;7.132;2022-12-10T07:32:58;4.97;;;3.90;;
9418;SDS011;4748;50.802;7.132;2022-12-10T07:35:23;7.27;;;4.53;;
9418;SDS011;4748;50.802;7.132;2022-12-10T07:37:49;6.60;;;3.40;;
9418;SDS011;4748;50.802;7.132;2022-12-10T07:40:14;5.97;;;3.13;;
9418;SDS011;4748;50.802;7.132;2022-12-10T07:42:40;5.43;;;3.13;;
9418;SDS011;4748;50.802;7.132;2022-12-10T07:45:05;7.83;;;3.63;;
9418;SDS011;4748;50.802;7.132;2022-12-10T07:47:31;5.37;;;3.57;;
9418;SDS011;4748;50.802;7.132;2022-12-10T07:49:56;3.27;;;3.00;;
9418;SDS011;4748;50.802;7.132;2022-12-10T07:52:21;7.77;;;3.37;;
9418;SDS011;4748;50.802;7.132;2022-12-10T07:54:47;9.33;;;4.37;;
9418;SDS011;4748;50.802;7.132;2022-12-10T07:57:12;9.23;;;3.37;;
9418;SDS011;4748;50.802;7.132;2022-12-10T07:59:39;7.37;;;3.80;;
9418;SDS011;4748;50.802;7.132;2022-12-10T08:02:04;9.23;;;4.27;;
9418;SDS011;4748;50.802;7.132;2022-12-10T08:04:29;4.13;;;2.73;;
9418;SDS011;4748;50.802;7.132;2022-12-10T08:06:55;12.90;;;3.87;;
9418;SDS011;4748;50.802;7.132;2022-12-10T08:09:20;5.63;;;4.07;;
9418;SDS011;4748;50.802;7.132;2022-12-10T08:11:46;7.43;;;4.13;;
9418;SDS011;4748;50.802;7.132;2022-12-10T08:14:11;4.40;;;3.73;;
9418;SDS011;4748;50.802;7.132;2022-12-10T08:16:37;5.63;;;3.30;;
9418;SDS011;4748;50.802;7.132;2022-12-10T08:19:02;8.40;;;5.50;;
9418;SDS011;4748;50.802;7.132;2022-12-10T08:21:29;14.03;;;5.43;;
9418;SDS011;4748;50.802;7.132;2022-12-10T08:23:56;4.50;;;3.50;;
9418;SDS011;4748;50.802;7.132;2022-12-10T08:26:22;3.93;;;3.10;;
9418;SDS011;4748;50.802;7.132;2022-12-10T08:28:50;6.03;;;4.03;;
9418;SDS011;4748;50.802;7.132;2022-12-10T08:31:17;7.33;;;4.00;;
9418;SDS011;4748;50.802;7.132;2022-12-10T08:33:43;4.63;;;3.67;;
9418;SDS011;4748;50.802;7.132;2022-12-10T08:36:10;6.33;;;3.87;;
9418;SDS011;4748;50.802;7.132;2022-12-10T08:38:37;5.20;;;3.73;;
9418;SDS011;4748;50.802;7.132;2022-12-10T08:41:06;6.13;;;3.33;;
9418;SDS011;4748;50.802;7.132;2022-12-10T08:43:37;5.33;;;3.80;;
9418;SDS011;4748;50.802;7.132;2022-12-10T08:46:03;8.83;;;3.70;;
9418;SDS011;4748;50.802;7.132;2022-12-10T08:48:29;6.77;;;3.80;;
9418;SDS011;4748;50.802;7.132;2022-12-10T08:50:55;15.97;;;5.80;;
9418;SDS011;4748;50.802;7.132;2022-12-10T08:53:21;7.80;;;4.50;;
9418;SDS011;4748;50.802;7.132;2022-12-10T08:55:51;13.57;;;3.53;;
9418;SDS011;4748;50.802;7.132;2022-12-10T08:58:18;9.00;;;4.13;;
9418;SDS011;4748;50.802;7.132;2022-12-10T09:00:44;5.73;;;3.67;;
9418;SDS011;4748;50.802;7.132;2022-12-10T09:03:10;5.53;;;4.00;;
9418;SDS011;4748;50.802;7.132;2022-12-10T09:05:36;9.00;;;4.50;;
9418;SDS011;4748;50.802;7.132;2022-12-10T09:08:02;8.47;;;3.87;;
9418;SDS011;4748;50.802;7.132;2022-12-10T09:10:28;5.93;;;4.13;;
9418;SDS011;4748;50.802;7.132;2022-12-10T09:12:53;6.07;;;4.50;;
9418;SDS011;4748;50.802;7.132;2022-12-10T09:15:18;7.17;;;4.13;;
9418;SDS011;4748;50.802;7.132;2022-12-10T09:17:44;4.30;;;3.83;;
9418;SDS011;4748;50.802;7.132;2022-12-10T09:20:09;5.73;;;3.57;;
9418;SDS011;4748;50.802;7.132;2022-12-10T09:22:35;9.90;;;4.43;;
9418;SDS011;4748;50.802;7.132;2022-12-10T09:25:02;5.43;;;3.37;;
9418;SDS011;4748;50.802;7.132;2022-12-10T09:27:30;8.20;;;5.07;;
9418;SDS011;4748;50.802;7.132;2022-12-10T09:29:55;7.07;;;5.87;;
9418;SDS011;4748;50.802;7.132;2022-12-10T09:32:21;8.43;;;4.37;;
9418;SDS011;4748;50.802;7.132;2022-12-10T09:34:46;7.20;;;5.10;;
9418;SDS011;4748;50.802;7.132;2022-12-10T09:37:11;9.10;;;5.37;;
9418;SDS011;4748;50.802;7.132;2022-12-10T09:39:37;19.77;;;7.97;;
9418;SDS011;4748;50.802;7.132;2022-12-10T09:42:06;8.80;;;5.90;;
9418;SDS011;4748;50.802;7.132;2022-12-10T09:47:15;15.97;;;5.93;;
9418;SDS011;4748;50.802;7.132;2022-12-10T09:52:19;9.50;;;5.90;;
9418;SDS011;4748;50.802;7.132;2022-12-10T09:54:52;6.63;;;4.60;;
9418;SDS011;4748;50.802;7.132;2022-12-10T09:57:26;8.00;;;4.23;;
9418;SDS011;4748;50.802;7.132;2022-12-10T09:59:55;6.57;;;3.20;;
9418;SDS011;4748;50.802;7.132;2022-12-10T10:02:24;10.67;;;4.90;;
9418;SDS011;4748;50.802;7.132;2022-12-10T10:04:54;6.17;;;4.17;;
9418;SDS011;4748;50.802;7.132;2022-12-10T10:07:26;9.07;;;5.20;;
9418;SDS011;4748;50.802;7.132;2022-12-10T10:09:58;4.67;;;4.10;;
9418;SDS011;4748;50.802;7.132;2022-12-10T10:12:29;7.03;;;4.17;;
9418;SDS011;4748;50.802;7.132;2022-12-10T10:14:58;6.03;;;4.27;;
9418;SDS011;4748;50.802;7.132;2022-12-10T10:17:35;19.30;;;6.27;;
9418;SDS011;4748;50.802;7.132;2022-12-10T10:20:02;8.33;;;5.20;;
9418;SDS011;4748;50.802;7.132;2022-12-10T10:22:28;8.20;;;4.03;;
9418;SDS011;4748;50.802;7.132;2022-12-10T10:24:55;7.50;;;4.40;;
9418;SDS011;4748;50.802;7.132;2022-12-10T10:27:21;7.33;;;3.83;;
9418;SDS011;4748;50.802;7.132;2022-12-10T10:29:51;7.63;;;5.13;;
9418;SDS011;4748;50.802;7.132;2022-12-10T10:34:51;6.00;;;4.60;;
9418;SDS011;4748;50.802;7.132;2022-12-10T10:37:23;8.70;;;4.57;;
9418;SDS011;4748;50.802;7.132;2022-12-10T10:39:53;8.73;;;4.27;;
9418;SDS011;4748;50.802;7.132;2022-12-10T10:45:02;6.80;;;2.97;;
9418;SDS011;4748;50.802;7.132;2022-12-10T10:47:33;6.73;;;4.50;;
9418;SDS011;4748;50.802;7.132;2022-12-10T10:50:02;6.97;;;2.93;;
9418;SDS011;4748;50.802;7.132;2022-12-10T10:52:30;8.20;;;4.80;;
9418;SDS011;4748;50.802;7.132;2022-12-10T10:55:00;11.67;;;5.13;;
9418;SDS011;4748;50.802;7.132;2022-12-10T10:57:32;12.63;;;4.20;;
9418;SDS011;4748;50.802;7.132;2022-12-10T11:00:18;9.20;;;3.93;;
9418;SDS011;4748;50.802;7.132;2022-12-10T11:02:47;8.67;;;4.23;;
9418;SDS011;4748;50.802;7.132;2022-12-10T11:05:23;9.27;;;4.17;;
9418;SDS011;4748;50.802;7.132;2022-12-10T11:07:57;8.73;;;4.00;;
9418;SDS011;4748;50.802;7.132;2022-12-10T11:10:27;8.00;;;4.47;;
9418;SDS011;4748;50.802;7.132;2022-12-10T11:15:43;8.77;;;5.27;;
9418;SDS011;4748;50.802;7.132;2022-12-10T11:21:21;4.87;;;3.87;;
9418;SDS011;4748;50.802;7.132;2022-12-10T11:23:48;5.67;;;3.23;;
9418;SDS011;4748;50.802;7.132;2022-12-10T11:29:08;8.23;;;4.53;;
9418;SDS011;4748;50.802;7.132;2022-12-10T11:31:39;19.73;;;5.07;;
9418;SDS011;4748;50.802;7.132;2022-12-10T11:37:34;10.17;;;4.63;;
9418;SDS011;4748;50.802;7.132;2022-12-10T11:43:05;14.90;;;4.73;;
9418;SDS011;4748;50.802;7.132;2022-12-10T11:50:59;13.60;;;6.73;;
9418;SDS011;4748;50.802;7.132;2022-12-10T12:17:19;15.73;;;7.10;;
9418;SDS011;4748;50.802;7.132;2022-12-10T12:19:50;11.57;;;5.57;;
9418;SDS011;4748;50.802;7.132;2022-12-10T12:22:27;15.73;;;7.77;;
9418;SDS011;4748;50.802;7.132;2022-12-10T12:25:00;12.13;;;5.07;;
9418;SDS011;4748;50.802;7.132;2022-12-10T12:27:38;16.40;;;5.73;;
9418;SDS011;4748;50.802;7.132;2022-12-10T12:30:14;11.00;;;6.10;;
9418;SDS011;4748;50.802;7.132;2022-12-10T12:32:54;12.10;;;6.23;;
9418;SDS011;4748;50.802;7.132;2022-12-10T12:36:08;10.40;;;6.47;;
9418;SDS011;4748;50.802;7.132;2022-12-10T12:38:46;7.40;;;5.17;;
9418;SDS011;4748;50.802;7.132;2022-12-10T12:43:55;7.67;;;3.90;;
9418;SDS011;4748;50.802;7.132;2022-12-10T12:46:39;11.30;;;5.67;;
9418;SDS011;4748;50.802;7.132;2022-12-10T12:49:13;13.60;;;6.20;;
9418;SDS011;4748;50.802;7.132;2022-12-10T12:54:21;15.47;;;6.97;;
9418;SDS011;4748;50.802;7.132;2022-12-10T12:57:02;10.67;;;6.03;;
9418;SDS011;4748;50.802;7.132;2022-12-10T13:04:46;8.37;;;4.77;;
9418;SDS011;4748;50.802;7.132;2022-12-10T13:12:45;12.37;;;5.73;;
9418;SDS011;4748;50.802;7.132;2022-12-10T13:15:20;12.80;;;6.40;;
9418;SDS011;4748;50.802;7.132;2022-12-10T13:18:33;13.57;;;6.53;;
9418;SDS011;4748;50.802;7.132;2022-12-10T13:23:51;14.27;;;6.70;;
9418;SDS011;4748;50.802;7.132;2022-12-10T13:26:27;9.10;;;5.60;;
9418;SDS011;4748;50.802;7.132;2022-12-10T13:28:55;10.33;;;5.50;;
9418;SDS011;4748;50.802;7.132;2022-12-10T13:31:35;12.37;;;6.27;;
9418;SDS011;4748;50.802;7.132;2022-12-10T13:41:40;19.70;;;5.53;;
9418;SDS011;4748;50.802;7.132;2022-12-10T13:44:48;17.97;;;6.43;;
9418;SDS011;4748;50.802;7.132;2022-12-10T13:53:00;11.83;;;5.00;;
9418;SDS011;4748;50.802;7.132;2022-12-10T13:59:10;17.50;;;5.63;;
9418;SDS011;4748;50.802;7.132;2022-12-10T14:06:35;10.53;;;5.07;;
9418;SDS011;4748;50.802;7.132;2022-12-10T14:11:31;9.53;;;5.90;;
9418;SDS011;4748;50.802;7.132;2022-12-10T14:14:00;11.47;;;5.47;;
9418;SDS011;4748;50.802;7.132;2022-12-10T14:16:28;9.13;;;5.07;;
9418;SDS011;4748;50.802;7.132;2022-12-10T14:18:57;9.73;;;6.20;;
9418;SDS011;4748;50.802;7.132;2022-12-10T14:21:26;15.27;;;6.87;;
9418;SDS011;4748;50.802;7.132;2022-12-10T14:23:56;15.87;;;6.20;;
9418;SDS011;4748;50.802;7.132;2022-12-10T14:26:29;12.97;;;6.13;;
9418;SDS011;4748;50.802;7.132;2022-12-10T14:28:58;9.50;;;5.47;;
9418;SDS011;4748;50.802;7.132;2022-12-10T14:31:28;11.47;;;6.87;;
9418;SDS011;4748;50.802;7.132;2022-12-10T14:34:00;15.60;;;6.67;;
9418;SDS011;4748;50.802;7.132;2022-12-10T14:36:34;15.47;;;7.23;;
9418;SDS011;4748;50.802;7.132;2022-12-10T14:39:09;14.47;;;5.67;;
9418;SDS011;4748;50.802;7.132;2022-12-10T14:41:39;12.43;;;6.30;;
9418;SDS011;4748;50.802;7.132;2022-12-10T14:44:05;8.57;;;5.23;;
9418;SDS011;4748;50.802;7.132;2022-12-10T14:46:31;16.53;;;7.77;;
9418;SDS011;4748;50.802;7.132;2022-12-10T14:48:57;11.80;;;6.17;;
9418;SDS011;4748;50.802;7.132;2022-12-10T14:51:24;15.67;;;6.33;;
9418;SDS011;4748;50.802;7.132;2022-12-10T15:46:58;10.20;;;3.90;;
9418;SDS011;4748;50.802;7.132;2022-12-10T15:49:24;6.03;;;3.90;;
9418;SDS011;4748;50.802;7.132;2022-12-10T15:51:50;17.43;;;5.70;;
9418;SDS011;4748;50.802;7.132;2022-12-10T15:54:20;7.13;;;5.00;;
9418;SDS011;4748;50.802;7.132;2022-12-10T15:56:49;11.60;;;4.07;;
9418;SDS011;4748;50.802;7.132;2022-12-10T15:59:14;7.97;;;4.27;;
9418;SDS011;4748;50.802;7.132;2022-12-10T16:01:41;6.10;;;3.73;;
9418;SDS011;4748;50.802;7.132;2022-12-10T16:04:06;8.93;;;4.80;;
9418;SDS011;4748;50.802;7.132;2022-12-10T16:06:31;9.97;;;5.07;;
9418;SDS011;4748;50.802;7.132;2022-12-10T16:08:57;9.97;;;5.17;;
9418;SDS011;4748;50.802;7.132;2022-12-10T16:11:22;6.63;;;4.97;;
9418;SDS011;4748;50.802;7.132;2022-12-10T16:13:50;11.03;;;5.37;;
9418;SDS011;4748;50.802;7.132;2022-12-10T16:16:18;8.37;;;5.27;;
9418;SDS011;4748;50.802;7.132;2022-12-10T16:18:44;11.70;;;6.23;;
9418;SDS011;4748;50.802;7.132;2022-12-10T16:21:09;6.10;;;4.13;;
9418;SDS011;4748;50.802;7.132;2022-12-10T16:23:35;16.87;;;7.63;;
9418;SDS011;4748;50.802;7.132;2022-12-10T16:26:00;11.10;;;6.73;;
9418;SDS011;4748;50.802;7.132;2022-12-10T16:28:27;10.67;;;5.87;;
9418;SDS011;4748;50.802;7.132;2022-12-10T16:30:56;15.80;;;6.23;;
9418;SDS011;4748;50.802;7.132;2022-12-10T16:33:24;11.40;;;5.03;;
9418;SDS011;4748;50.802;7.132;2022-12-10T16:35:51;8.73;;;5.13;;
9418;SDS011;4748;50.802;7.132;2022-12-10T16:38:19;7.67;;;5.77;;
9418;SDS011;4748;50.802;7.132;2022-12-10T16:40:45;7.53;;;5.73;;
9418;SDS011;4748;50.802;7.132;2022-12-10T16:43:13;33.33;;;7.03;;
9418;SDS011;4748;50.802;7.132;2022-12-10T16:45:40;7.67;;;4.47;;
9418;SDS011;4748;50.802;7.132;2022-12-10T16:48:06;12.70;;;6.07;;
9418;SDS011;4748;50.802;7.132;2022-12-10T16:50:31;13.80;;;5.37;;
9418;SDS011;4748;50.802;7.132;2022-12-10T16:53:17;14.70;;;5.70;;
9418;SDS011;4748;50.802;7.132;2022-12-10T16:55:51;13.63;;;5.17;;
9418;SDS011;4748;50.802;7.132;2022-12-10T16:58:17;15.00;;;6.27;;
9418;SDS011;4748;50.802;7.132;2022-12-10T17:00:44;13.13;;;5.67;;
9418;SDS011;4748;50.802;7.132;2022-12-10T17:03:11;10.80;;;5.33;;
9418;SDS011;4748;50.802;7.132;2022-12-10T17:05:47;5.27;;;3.43;;
9418;SDS011;4748;50.802;7.132;2022-12-10T17:08:15;8.47;;;3.90;;
9418;SDS011;4748;50.802;7.132;2022-12-10T17:10:41;12.90;;;5.90;;
9418;SDS011;4748;50.802;7.132;2022-12-10T17:13:25;7.60;;;6.17;;
9418;SDS011;4748;50.802;7.132;2022-12-10T17:15:51;12.10;;;6.37;;
9418;SDS011;4748;50.802;7.132;2022-12-10T17:18:18;18.03;;;7.50;;
9418;SDS011;4748;50.802;7.132;2022-12-10T17:20:44;8.97;;;5.57;;
9418;SDS011;4748;50.802;7.132;2022-12-10T17:23:10;11.90;;;6.17;;
9418;SDS011;4748;50.802;7.132;2022-12-10T17:25:36;8.37;;;4.83;;
9418;SDS011;4748;50.802;7.132;2022-12-10T17:28:03;11.37;;;6.30;;
9418;SDS011;4748;50.802;7.132;2022-12-10T17:30:29;6.47;;;4.83;;
9418;SDS011;4748;50.802;7.132;2022-12-10T17:32:54;14.60;;;5.93;;
9418;SDS011;4748;50.802;7.132;2022-12-10T17:35:20;8.53;;;5.67;;
9418;SDS011;4748;50.802;7.132;2022-12-10T17:37:46;13.67;;;6.30;;
9418;SDS011;4748;50.802;7.132;2022-12-10T17:40:13;14.67;;;4.83;;
9418;SDS011;4748;50.802;7.132;2022-12-10T17:42:40;6.17;;;3.83;;
9418;SDS011;4748;50.802;7.132;2022-12-10T17:45:06;9.93;;;4.73;;
9418;SDS011;4748;50.802;7.132;2022-12-10T17:47:32;6.43;;;4.33;;
9418;SDS011;4748;50.802;7.132;2022-12-10T17:49:58;17.73;;;6.27;;
9418;SDS011;4748;50.802;7.132;2022-12-10T17:52:24;11.80;;;5.63;;
9418;SDS011;4748;50.802;7.132;2022-12-10T17:54:49;10.80;;;4.90;;
9418;SDS011;4748;50.802;7.132;2022-12-10T17:57:19;7.57;;;5.10;;
9418;SDS011;4748;50.802;7.132;2022-12-10T17:59:46;21.03;;;5.20;;
9418;SDS011;4748;50.802;7.132;2022-12-10T18:02:11;8.13;;;4.13;;
9418;SDS011;4748;50.802;7.132;2022-12-10T18:04:37;20.23;;;6.00;;
9418;SDS011;4748;50.802;7.132;2022-12-10T18:07:11;14.23;;;5.87;;
9418;SDS011;4748;50.802;7.132;2022-12-10T18:09:38;7.97;;;5.00;;
9418;SDS011;4748;50.802;7.132;2022-12-10T18:12:04;9.43;;;5.63;;
9418;SDS011;4748;50.802;7.132;2022-12-10T18:14:29;11.27;;;5.83;;
9418;SDS011;4748;50.802;7.132;2022-12-10T18:16:55;15.07;;;6.47;;